Latest Weather Observations for Tunnack

IDT60801

Issued at 6:35 pm EST Sunday 20 April 2014 (issued every 30 minutes, with the page automatically refreshed every 10 minutes)

About weather observations | Map of weather stations | Latest weather observations for TAS | Other Formats
Station Details ID: 094195 Name: TUNNACK FIRE STATION Lat: -42.45 Lon: 147.46 Height: 461.5 m
Data from the previous 72 hours. | See also: Recent months at Tunnack
Date/Time
EST
Temp
°C
App
Temp
°C
Dew
Point
Rel
Hum
%
Delta-T
°C
Wind Press
QNH
hPa
Press
MSL
hPa
Rain
since 9 am
mm
Dir
 
Spd
km/h
Gust
km/h
Spd
kts
Gust
kts
20/06:30pm 9.1 5.7 7.5 90 0.8 WSW 15 20 8 11 1011.7 - 0.4
20/06:00pm 9.5 5.4 7.8 89 0.8 SW 19 24 10 13 1011.1 1011.1 0.4
20/05:30pm 10.8 6.9 6.9 77 1.9 W 17 30 9 16 1010.4 - 0.0
20/05:00pm 11.6 7.3 6.9 73 2.3 WNW 19 32 10 17 1009.6 - 0.0
20/04:30pm 13.2 8.8 7.6 69 2.8 WNW 20 28 11 15 1009.4 - 0.0
20/04:00pm 13.3 8.9 7.5 68 2.9 W 20 33 11 18 1009.2 - 0.0
20/03:30pm 12.5 7.4 7.8 73 2.4 W 24 39 13 21 1009.0 - 0.0
20/03:00pm 14.3 8.5 6.4 59 3.9 W 26 43 14 23 1008.6 1008.6 0.0
20/02:30pm 13.8 7.6 6.2 60 3.7 WNW 28 43 15 23 1008.4 - 0.0
20/02:00pm 14.4 7.1 5.5 55 4.3 WNW 33 46 18 25 1007.8 - 0.0
20/01:55pm 15.0 8.7 5.8 54 4.5 WNW 28 46 15 25 1008.0 - 0.0
20/01:30pm 14.3 7.7 5.9 57 4.1 WNW 30 44 16 24 1008.1 - 0.0
20/01:00pm 14.3 7.7 5.9 57 4.1 WNW 30 44 16 24 1008.4 - 0.0
20/12:30pm 13.4 6.2 5.8 60 3.7 WNW 33 48 18 26 1008.8 - 0.0
20/12:26pm 12.9 6.1 5.1 59 3.7 NW 30 48 16 26 1009.0 - 0.0
20/12:00pm 11.2 7.5 6.5 73 2.3 N 15 20 8 11 1009.4 1009.4 0.0
20/11:30am 9.6 4.8 4.6 71 2.3 N 19 26 10 14 1009.9 - 0.0
20/11:00am 10.0 5.6 5.0 71 2.3 N 17 24 9 13 1010.1 - 0.0
20/10:30am 10.9 6.7 5.9 71 2.4 N 17 24 9 13 1010.3 - 0.0
20/10:00am 8.5 4.1 4.5 76 1.8 N 17 24 9 13 1010.7 - 0.0
20/09:30am 7.7 3.2 4.1 78 1.6 N 17 20 9 11 1011.1 - 0.0
20/09:00am 7.1 2.6 4.2 82 1.3 N 17 24 9 13 1011.2 1011.2 0.0
20/08:30am 5.9 2.1 3.7 86 1.0 N 13 17 7 9 1011.4 - 0.0
20/08:00am 5.6 0.5 3.3 85 1.0 N 19 24 10 13 1011.4 - 0.0
20/07:30am 3.8 0.9 2.5 91 0.5 N 7 9 4 5 1011.4 - 0.0
20/07:00am 3.4 0.4 2.2 92 0.5 NNE 7 13 4 7 1011.3 - 0.0
20/06:30am 3.4 0.8 1.0 84 0.9 NE 4 6 2 3 1011.3 - 0.0
20/06:00am 2.7 -0.2 1.4 91 0.5 N 6 13 3 7 1010.9 1010.9 0.0
20/05:30am 3.3 -0.1 2.1 92 0.5 N 9 15 5 8 1010.9 - 0.0
20/05:00am 2.6 -0.3 1.4 92 0.5 ENE 6 9 3 5 1011.1 - 0.0
20/04:30am 2.1 -0.5 1.2 94 0.4 ENE 4 7 2 4 1011.4 - 0.0
20/04:00am 4.2 1.2 1.7 84 1.0 NNW 7 13 4 7 1011.6 - 0.0
20/03:30am 3.6 0.4 0.7 81 1.1 W 7 11 4 6 1011.8 - 0.0
20/03:00am 4.8 1.9 1.3 78 1.4 W 6 7 3 4 1012.1 1012.1 0.0
20/02:30am 4.6 1.2 1.6 81 1.2 W 9 13 5 7 1012.6 - 0.0
20/02:00am 3.9 0.5 1.8 86 0.9 W 9 13 5 7 1012.8 - 0.0
20/01:30am 2.9 -0.5 1.9 93 0.4 WNW 9 15 5 8 1013.0 - 0.0
20/01:00am 1.2 -1.5 0.2 93 0.4 WSW 4 7 2 4 1013.1 - 0.0
20/12:30am 2.6 -0.9 1.1 90 0.6 W 9 11 5 6 1013.4 - 0.0
20/12:00am 2.8 0.2 0.7 86 0.8 W 4 7 2 4 1013.4 1013.4 0.0
 
Date/Time
EST
Temp
°C
App
Temp
°C
Dew
Point
Rel
Hum
%
Delta-T
°C
Wind Press
QNH
hPa
Press
MSL
hPa
Rain
since 9 am
mm
Dir
 
Spd
km/h
Gust
km/h
Spd
kts
Gust
kts
19/11:30pm 4.1 1.0 1.3 82 1.1 W 7 13 4 7 1013.5 - 0.0
19/11:00pm 5.1 1.7 1.8 79 1.4 W 9 15 5 8 1013.9 - 0.0
19/10:30pm 6.1 2.4 2.2 76 1.6 W 11 15 6 8 1014.4 - 0.0
19/10:00pm 6.1 1.6 2.4 77 1.6 W 15 20 8 11 1014.7 - 0.0
19/09:30pm 6.0 1.3 3.0 81 1.3 W 17 20 9 11 1014.9 - 0.0
19/09:00pm 6.6 2.7 3.6 81 1.3 W 13 20 7 11 1015.0 1015.0 0.0
19/08:30pm 7.3 3.9 3.9 79 1.5 NW 11 15 6 8 1015.0 - 0.0
19/08:00pm 7.5 4.4 3.7 77 1.7 WNW 9 13 5 7 1015.0 - 0.0
19/07:30pm 7.9 4.5 3.9 76 1.8 W 11 17 6 9 1015.0 - 0.0
19/07:00pm 7.9 4.5 3.8 75 1.8 W 11 17 6 9 1014.9 - 0.0
19/06:30pm 8.0 4.9 3.5 73 2.0 W 9 13 5 7 1014.6 - 0.0
19/06:00pm 8.4 5.3 3.7 72 2.1 W 9 13 5 7 1014.7 1014.8 0.0
19/05:30pm 8.8 4.9 3.6 70 2.3 WSW 13 20 7 11 1014.5 - 0.0
19/05:00pm 9.1 5.3 3.7 69 2.4 WSW 13 19 7 10 1014.5 - 0.0
19/04:30pm 9.8 5.9 3.5 65 2.8 WSW 13 17 7 9 1014.4 - 0.0
19/04:00pm 10.2 5.8 2.8 60 3.3 WSW 15 22 8 12 1014.3 - 0.0
19/03:30pm 10.1 6.6 3.6 64 2.9 SSW 11 15 6 8 1014.2 - 0.0
19/03:00pm 10.3 5.6 3.1 61 3.2 S 17 24 9 13 1014.1 1014.2 0.0
19/02:30pm 11.4 6.2 2.7 55 3.9 WSW 19 28 10 15 1014.2 - 0.0
19/02:00pm 10.2 5.1 3.0 61 3.2 W 19 28 10 15 1014.2 - 0.0
19/01:30pm 10.9 6.3 3.9 62 3.2 WSW 17 30 9 16 1014.2 - 0.0
19/01:00pm 9.8 5.1 2.9 62 3.0 SW 17 22 9 12 1014.4 - 0.0
19/12:30pm 9.4 4.0 2.7 63 2.9 SW 20 28 11 15 1014.7 - 0.0
19/12:00pm 10.1 4.0 2.9 61 3.2 SW 24 41 13 22 1015.1 1015.1 0.0
19/11:30am 10.6 5.5 3.9 63 3.0 WSW 20 33 11 18 1015.2 - 0.0
19/11:00am 10.8 5.8 3.8 62 3.2 WSW 19 30 10 16 1015.3 - 0.0
19/10:30am 9.3 4.3 3.7 68 2.5 WSW 19 32 10 17 1015.4 - 0.0
19/10:00am 8.7 3.8 4.1 73 2.1 WSW 19 28 10 15 1015.6 - 0.0
19/09:30am 8.2 3.0 3.5 72 2.1 WSW 20 28 11 15 1015.6 - 0.0
19/09:00am 7.9 3.3 3.8 75 1.8 WSW 17 26 9 14 1015.5 1015.5 1.6
19/08:30am 7.0 2.5 4.0 81 1.3 W 17 26 9 14 1015.4 - 1.6
19/08:00am 5.0 0.3 3.3 89 0.7 W 17 24 9 13 1015.3 - 1.6
19/07:30am 5.3 1.4 3.5 88 0.8 WSW 13 19 7 10 1014.9 - 1.6
19/07:00am 4.6 0.2 2.6 87 0.8 W 15 20 8 11 1014.4 - 1.6
19/06:30am 4.6 0.1 2.3 85 1.0 W 15 20 8 11 1014.0 - 1.6
19/06:00am 4.7 0.6 2.2 84 1.0 WSW 13 19 7 10 1013.9 1013.9 1.6
19/05:30am 5.3 1.6 2.5 82 1.2 W 11 17 6 9 1013.7 - 1.6
19/05:00am 5.5 1.1 2.5 81 1.3 WSW 15 24 8 13 1013.5 - 1.6
19/04:30am 5.1 0.6 2.1 81 1.2 WSW 15 22 8 12 1013.3 - 1.6
19/04:00am 4.6 0.8 2.0 83 1.1 WSW 11 20 6 11 1013.3 - 1.6
19/03:30am 5.0 0.1 2.2 82 1.2 WSW 17 26 9 14 1013.0 - 1.6
19/03:00am 4.9 1.1 1.9 81 1.2 W 11 20 6 11 1013.1 1013.1 1.6
19/02:30am 5.3 1.2 2.0 79 1.4 W 13 22 7 12 1013.1 - 1.6
19/02:00am 5.3 1.2 2.1 80 1.3 W 13 20 7 11 1013.0 - 1.6
19/01:30am 5.7 0.8 2.2 78 1.5 W 17 26 9 14 1012.9 - 1.6
19/01:00am 5.7 0.9 2.4 79 1.4 WSW 17 26 9 14 1013.0 - 1.6
19/12:30am 5.8 1.0 2.4 79 1.4 W 17 30 9 16 1013.0 - 1.6
19/12:00am 6.0 1.5 2.1 76 1.6 W 15 20 8 11 1012.8 1012.8 1.6
 
Date/Time
EST
Temp
°C
App
Temp
°C
Dew
Point
Rel
Hum
%
Delta-T
°C
Wind Press
QNH
hPa
Press
MSL
hPa
Rain
since 9 am
mm
Dir
 
Spd
km/h
Gust
km/h
Spd
kts
Gust
kts
18/11:30pm 6.6 0.8 2.1 73 1.9 WSW 22 37 12 20 1012.6 - 1.6
18/11:00pm 6.6 1.1 2.1 73 1.9 WSW 20 35 11 19 1012.6 - 1.6
18/10:30pm 6.8 1.1 2.7 75 1.8 WSW 22 35 12 19 1012.4 - 1.6
18/10:00pm 7.0 1.3 2.9 75 1.8 WSW 22 37 12 20 1012.7 - 1.6
18/09:30pm 7.2 2.0 3.3 76 1.7 WSW 20 35 11 19 1012.4 - 1.6
18/09:00pm 7.4 1.3 2.9 73 1.9 WSW 24 39 13 21 1012.3 1012.4 1.6
18/08:39pm 7.3 0.6 3.4 76 1.7 WSW 28 46 15 25 1011.9 - 1.6
18/08:30pm 7.2 1.2 3.4 77 1.7 WSW 24 37 13 20 1011.8 - 1.6
18/08:00pm 7.6 2.0 3.5 75 1.8 WSW 22 35 12 19 1011.6 - 1.6
18/07:30pm 7.8 1.0 3.1 72 2.0 WSW 28 46 15 25 1011.4 - 1.6
18/07:17pm 7.8 1.0 3.3 73 2.0 WSW 28 48 15 26 1011.3 - 1.6
18/07:00pm 7.6 1.6 3.1 73 2.0 WSW 24 37 13 20 1011.1 - 1.6
18/06:30pm 7.8 2.5 2.9 71 2.1 WSW 20 30 11 16 1010.9 - 1.6
18/06:00pm 8.2 1.7 2.4 67 2.5 WSW 26 44 14 24 1010.6 1010.6 1.6
18/05:30pm 8.5 2.0 2.9 68 2.4 WSW 26 39 14 21 1009.9 - 1.6
18/05:02pm 9.4 2.6 3.2 65 2.7 WSW 28 46 15 25 1009.6 - 1.6
18/05:00pm 9.4 2.6 2.9 64 2.9 WSW 28 44 15 24 1009.5 - 1.6
18/04:35pm 9.6 2.0 2.7 62 3.0 WSW 32 50 17 27 1009.2 - 1.6
18/04:30pm 10.0 2.4 2.8 61 3.2 WSW 32 44 17 24 1009.1 - 1.6
18/04:05pm 11.2 3.6 2.8 56 3.7 WSW 32 57 17 31 1008.8 - 1.6
18/04:00pm 11.0 3.5 3.5 60 3.4 WSW 32 48 17 26 1008.8 - 1.6
18/03:30pm 11.2 3.5 3.3 58 3.6 W 33 52 18 28 1008.2 - 1.6
18/03:00pm 11.6 4.0 3.1 56 3.8 WSW 32 63 17 34 1007.7 1007.7 1.6
18/02:45pm 11.6 4.1 3.6 58 3.6 WSW 32 50 17 27 1007.6 - 1.6
18/02:30pm 10.6 3.7 4.7 67 2.7 WSW 30 44 16 24 1007.5 - 1.6
18/02:19pm 10.4 3.9 4.8 68 2.6 WSW 28 46 15 25 1007.5 - 1.6
18/02:00pm 10.0 3.6 5.2 72 2.2 WSW 28 39 15 21 1007.5 - 1.6
18/01:30pm 9.8 5.0 5.6 75 2.0 WSW 20 39 11 21 1007.7 - 1.6
18/01:00pm 9.4 3.9 5.9 79 1.6 W 24 37 13 20 1008.1 - 1.6
18/12:30pm 9.2 5.2 6.8 85 1.2 W 17 28 9 15 1008.5 - 1.6
18/12:00pm 9.4 5.1 7.0 85 1.2 W 19 32 10 17 1008.3 1008.2 1.6
18/11:30am 9.2 4.8 7.3 88 0.9 W 20 33 11 18 1008.8 - 1.6
18/11:00am 9.3 5.0 7.7 90 0.8 WSW 20 37 11 20 1009.5 - 1.6
18/10:30am 8.5 1.4 6.6 88 0.9 W 33 67 18 36 1009.2 - 1.4
18/10:25am 10.6 4.9 8.4 86 1.1 W 28 52 15 28 1008.8 - 1.0
18/10:00am 13.5 9.7 11.0 85 1.3 N 22 30 12 16 1007.7 - 0.0
18/09:30am 13.4 9.0 11.8 90 0.9 N 26 35 14 19 1007.7 - 0.0
18/09:00am 12.6 9.0 12.0 96 0.3 N 22 30 12 16 1008.4 1008.3 0.0
18/08:30am 11.6 8.3 11.6 100 0.0 N 20 28 11 15 1008.8 - 0.0
18/08:00am 11.3 7.2 11.3 100 0.0 N 24 33 13 18 1009.1 - 0.0
18/07:30am 10.9 7.6 10.9 100 0.0 N 19 30 10 16 1009.5 - 0.0
18/07:00am 10.7 6.8 10.7 100 0.0 N 22 33 12 18 1009.5 - 0.0
18/06:30am 10.5 7.1 10.5 100 0.0 N 19 28 10 15 1009.9 - 0.0
18/06:00am 10.2 7.1 10.2 100 0.0 N 17 22 9 12 1010.4 1010.3 0.0
18/05:30am 10.1 7.7 10.1 100 0.0 N 13 17 7 9 1010.7 - 0.0
18/05:00am 10.7 8.1 10.7 100 0.0 N 15 26 8 14 1011.2 - 0.0
18/04:30am 10.8 7.8 10.8 100 0.0 N 17 26 9 14 1011.5 - 0.0
18/04:00am 10.8 6.9 10.8 100 0.0 N 22 32 12 17 1011.8 - 0.0
18/03:30am 10.1 8.5 10.1 100 0.0 N 9 15 5 8 1012.1 - 0.0
18/03:00am 9.9 7.8 9.9 100 0.0 N 11 17 6 9 1012.8 1012.8 0.0
18/02:30am 9.5 6.9 9.5 100 0.0 N 13 20 7 11 1013.2 - 0.0
18/02:00am 9.8 6.9 9.7 99 0.1 N 15 26 8 14 1013.4 - 0.0
18/01:30am 10.4 7.3 10.2 99 0.1 N 17 22 9 12 1014.1 - 0.0
18/01:00am 10.5 6.9 10.5 100 0.0 N 20 26 11 14 1014.6 - 0.0
18/12:30am 10.3 7.2 10.3 100 0.0 NNW 17 24 9 13 1015.1 - 0.0
18/12:00am 10.1 7.3 10.1 100 0.0 N 15 22 8 12 1015.4 1015.4 0.0
 
Date/Time
EST
Temp
°C
App
Temp
°C
Dew
Point
Rel
Hum
%
Delta-T
°C
Wind Press
QNH
hPa
Press
MSL
hPa
Rain
since 9 am
mm
Dir
 
Spd
km/h
Gust
km/h
Spd
kts
Gust
kts
17/11:30pm 10.2 8.2 10.2 100 0.0 NNW 11 19 6 10 1015.7 - 0.0
17/11:00pm 9.9 8.2 9.8 99 0.1 N 9 15 5 8 1016.0 - 0.0
17/10:30pm 9.7 7.9 9.6 99 0.1 N 9 11 5 6 1016.5 - 0.0
17/10:00pm 9.7 8.3 9.6 99 0.1 NNE 7 13 4 7 1017.0 - 0.0
17/09:30pm 9.4 7.9 9.3 99 0.1 NNE 7 13 4 7 1017.3 - 0.0
17/09:00pm 9.4 8.0 8.8 96 0.3 NNE 6 11 3 6 1017.4 1017.4 0.0
17/08:30pm 10.3 7.7 9.4 94 0.5 N 13 17 7 9 1017.4 - 0.0
17/08:00pm 10.5 7.5 9.1 91 0.7 N 15 20 8 11 1017.5 - 0.0
17/07:30pm 11.1 7.7 9.2 88 1.0 N 17 22 9 12 1017.6 - 0.0
17/07:00pm 11.1 7.7 9.2 88 1.0 N 17 24 9 13 1017.7 - 0.0

Other Formats:

Comma delimited format used in spreadsheet applications
http://www.bom.gov.au/fwo/IDT60801/IDT60801.94960.axf

JavaScript Object Notation format (JSON) in row-major order
http://www.bom.gov.au/fwo/IDT60801/IDT60801.94960.json